createdAt,value
2018-02-09T00:00:41.392Z,0.00
2018-02-09T00:01:41.394Z,0.00
2018-02-09T00:03:02.375Z,0.00
2018-02-09T00:04:02.358Z,0.00
2018-02-09T00:04:41.345Z,0.00
2018-02-09T00:05:41.339Z,0.00
2018-02-09T00:06:41.322Z,0.00
2018-02-09T00:08:02.318Z,0.00
2018-02-09T00:09:02.302Z,0.00
2018-02-09T00:09:41.302Z,0.00
2018-02-09T00:10:41.275Z,0.00
2018-02-09T00:11:41.264Z,0.00
2018-02-09T00:13:02.276Z,0.00
2018-02-09T00:14:02.240Z,0.00
2018-02-09T00:14:41.230Z,0.00
2018-02-09T00:15:41.213Z,0.00
2018-02-09T00:16:41.250Z,0.00
2018-02-09T00:18:02.202Z,0.00
2018-02-09T00:19:02.184Z,0.00
2018-02-09T00:19:41.171Z,0.00
2018-02-09T00:20:41.155Z,0.00
2018-02-09T00:21:41.146Z,0.00
2018-02-09T00:23:02.141Z,0.00
2018-02-09T00:24:02.128Z,0.00
2018-02-09T00:24:41.107Z,0.00
2018-02-09T00:25:41.097Z,0.00
2018-02-09T00:26:41.087Z,0.00
2018-02-09T00:28:02.082Z,0.00
2018-02-09T00:29:02.090Z,0.00
2018-02-09T00:29:41.050Z,0.00
2018-02-09T00:30:41.038Z,0.00
2018-02-09T00:31:41.046Z,0.00
2018-02-09T00:33:02.019Z,0.00
2018-02-09T00:34:02.025Z,0.00
2018-02-09T00:34:40.993Z,0.00
2018-02-09T00:35:40.981Z,0.00
2018-02-09T00:36:40.966Z,0.00
2018-02-09T00:38:01.955Z,0.00
2018-02-09T00:39:01.956Z,0.00
2018-02-09T00:39:40.932Z,0.00
2018-02-09T00:40:40.918Z,0.00
2018-02-09T00:41:40.905Z,0.00
2018-02-09T00:43:01.922Z,0.00
2018-02-09T00:44:01.912Z,0.00
2018-02-09T00:44:40.867Z,0.00
2018-02-09T00:45:40.859Z,0.00
2018-02-09T00:46:40.855Z,0.00
2018-02-09T00:48:01.837Z,0.00
2018-02-09T00:49:01.824Z,0.00
2018-02-09T00:49:40.809Z,0.00
2018-02-09T00:50:40.800Z,0.00
2018-02-09T00:51:40.789Z,0.00
2018-02-09T00:53:01.778Z,0.00
2018-02-09T00:54:01.770Z,0.00
2018-02-09T00:54:40.749Z,0.00
2018-02-09T00:55:40.774Z,0.00
2018-02-09T00:56:40.722Z,0.00
2018-02-09T00:58:01.746Z,0.00
2018-02-09T00:59:01.710Z,0.00
2018-02-09T00:59:40.687Z,0.00
2018-02-09T01:00:40.678Z,0.00
2018-02-09T01:01:40.666Z,0.00
2018-02-09T01:03:01.662Z,0.00
2018-02-09T01:04:01.671Z,0.00
2018-02-09T01:04:40.625Z,0.00
2018-02-09T01:05:40.617Z,0.00
2018-02-09T01:06:40.603Z,0.00
2018-02-09T01:08:01.602Z,0.00
2018-02-09T01:09:01.586Z,0.00
2018-02-09T01:09:40.568Z,0.00
2018-02-09T01:10:40.555Z,0.00
2018-02-09T01:11:40.545Z,0.00
2018-02-09T01:13:01.539Z,0.00
2018-02-09T01:14:01.534Z,0.00
2018-02-09T01:14:40.509Z,0.00
2018-02-09T01:15:40.511Z,0.00
2018-02-09T01:16:40.484Z,0.00
2018-02-09T01:18:01.478Z,0.00
2018-02-09T01:19:01.479Z,0.00
2018-02-09T01:19:40.449Z,0.00
2018-02-09T01:20:40.439Z,0.00
2018-02-09T01:21:40.425Z,0.00
2018-02-09T01:23:01.421Z,0.00
2018-02-09T01:24:01.408Z,0.00
2018-02-09T01:24:40.389Z,0.00
2018-02-09T01:25:40.380Z,0.00
2018-02-09T01:26:40.365Z,0.00
2018-02-09T01:28:01.372Z,0.00
2018-02-09T01:29:01.348Z,0.00
2018-02-09T01:29:40.330Z,0.00
2018-02-09T01:30:40.341Z,0.00
2018-02-09T01:31:40.311Z,0.00
2018-02-09T01:33:01.300Z,0.00
2018-02-09T01:34:01.302Z,0.00
2018-02-09T01:34:40.270Z,0.00
2018-02-09T01:35:40.263Z,0.00
2018-02-09T01:36:40.246Z,0.00
2018-02-09T01:38:01.244Z,0.00
2018-02-09T01:39:01.235Z,0.00
2018-02-09T01:39:40.210Z,0.00
2018-02-09T01:40:40.200Z,0.00
2018-02-09T01:41:40.190Z,0.00
2018-02-09T01:43:01.188Z,0.00
2018-02-09T01:44:01.218Z,0.00
2018-02-09T01:44:40.155Z,0.00
2018-02-09T01:45:40.165Z,0.00
2018-02-09T01:46:40.134Z,0.00
2018-02-09T01:48:01.123Z,0.00
2018-02-09T01:49:01.146Z,0.00
2018-02-09T01:49:40.096Z,0.00
2018-02-09T01:50:40.086Z,0.00
2018-02-09T01:51:40.076Z,0.00
2018-02-09T01:53:01.064Z,0.00
2018-02-09T01:54:01.048Z,0.00
2018-02-09T01:54:40.036Z,0.00
2018-02-09T01:55:40.025Z,0.00
2018-02-09T01:56:40.011Z,0.00
2018-02-09T01:58:01.004Z,0.00
2018-02-09T01:59:00.995Z,0.00
2018-02-09T01:59:39.974Z,0.00
2018-02-09T02:00:39.994Z,0.00
2018-02-09T02:01:39.957Z,0.00
2018-02-09T02:03:00.948Z,0.00
2018-02-09T02:04:00.976Z,0.00
2018-02-09T02:04:39.919Z,0.00
2018-02-09T02:05:39.906Z,0.00
2018-02-09T02:06:39.895Z,0.00
2018-02-09T02:08:00.912Z,0.00
2018-02-09T02:09:00.877Z,0.00
2018-02-09T02:09:39.863Z,0.00
2018-02-09T02:10:39.849Z,0.00
2018-02-09T02:11:39.837Z,0.00
2018-02-09T02:13:00.829Z,0.00
2018-02-09T02:14:00.818Z,0.00
2018-02-09T02:14:39.804Z,0.00
2018-02-09T02:15:39.790Z,0.00
2018-02-09T02:16:39.777Z,0.00
2018-02-09T02:18:00.774Z,0.00
2018-02-09T02:19:00.785Z,0.00
2018-02-09T02:19:39.742Z,0.00
2018-02-09T02:20:39.734Z,0.00
2018-02-09T02:21:39.717Z,0.00
2018-02-09T02:23:00.713Z,0.00
2018-02-09T02:24:00.702Z,0.00
2018-02-09T02:24:39.692Z,0.00
2018-02-09T02:25:39.674Z,0.00
2018-02-09T02:26:39.663Z,0.00
2018-02-09T02:28:00.652Z,0.00
2018-02-09T02:29:00.645Z,0.00
2018-02-09T02:29:39.628Z,0.00
2018-02-09T02:30:39.616Z,0.00
2018-02-09T02:31:39.605Z,0.00
2018-02-09T02:33:00.598Z,0.00
2018-02-09T02:34:00.580Z,0.00
2018-02-09T02:34:39.563Z,0.00
2018-02-09T02:35:39.561Z,0.00
2018-02-09T02:36:39.552Z,0.00
2018-02-09T02:38:00.540Z,0.00
2018-02-09T02:39:00.525Z,0.00
2018-02-09T02:39:39.511Z,0.00
2018-02-09T02:40:39.497Z,0.00
2018-02-09T02:41:39.488Z,0.00
2018-02-09T02:43:00.480Z,0.00
2018-02-09T02:44:00.469Z,0.00
2018-02-09T02:44:39.451Z,0.00
2018-02-09T02:45:39.444Z,0.00
2018-02-09T02:46:39.430Z,0.00
2018-02-09T02:48:00.421Z,0.00
2018-02-09T02:49:00.411Z,0.00
2018-02-09T02:49:39.392Z,0.00
2018-02-09T02:50:39.385Z,0.00
2018-02-09T02:51:39.372Z,0.00
2018-02-09T02:53:00.362Z,0.00
2018-02-09T02:54:00.353Z,0.00
2018-02-09T02:54:39.334Z,0.00
2018-02-09T02:55:39.329Z,0.00
2018-02-09T02:56:39.312Z,0.00
2018-02-09T02:58:00.314Z,0.00
2018-02-09T02:59:00.297Z,0.00
2018-02-09T02:59:39.284Z,0.00
2018-02-09T03:00:39.267Z,0.00
2018-02-09T03:01:39.263Z,0.00
2018-02-09T03:03:00.262Z,0.00
2018-02-09T03:04:00.243Z,0.00
2018-02-09T03:04:39.219Z,0.00
2018-02-09T03:05:39.212Z,0.00
2018-02-09T03:06:39.199Z,0.00
2018-02-09T03:08:00.190Z,0.00
2018-02-09T03:09:00.180Z,0.00
2018-02-09T03:09:39.160Z,0.00
2018-02-09T03:10:39.162Z,0.00
2018-02-09T03:11:39.139Z,0.00
2018-02-09T03:13:00.134Z,0.00
2018-02-09T03:14:00.120Z,0.00
2018-02-09T03:14:39.141Z,0.00
2018-02-09T03:15:39.095Z,0.00
2018-02-09T03:16:39.081Z,0.00
2018-02-09T03:18:00.100Z,0.00
2018-02-09T03:19:00.066Z,0.00
2018-02-09T03:19:40.431Z,0.00
2018-02-09T03:20:39.038Z,0.00
2018-02-09T03:21:39.027Z,0.00
2018-02-09T03:23:00.023Z,0.00
2018-02-09T03:24:00.010Z,0.00
2018-02-09T03:24:38.991Z,0.00
2018-02-09T03:25:38.977Z,0.00
2018-02-09T03:26:38.965Z,0.00
2018-02-09T03:27:59.957Z,0.00
2018-02-09T03:28:59.946Z,0.00
2018-02-09T03:29:38.998Z,0.00
2018-02-09T03:30:38.935Z,0.00
2018-02-09T03:31:38.931Z,0.00
2018-02-09T03:32:59.960Z,0.00
2018-02-09T03:33:59.892Z,0.00
2018-02-09T03:34:38.894Z,0.00
2018-02-09T03:35:38.863Z,0.00
2018-02-09T03:36:38.854Z,0.00
2018-02-09T03:37:59.844Z,0.00
2018-02-09T03:38:59.834Z,0.00
2018-02-09T03:39:38.843Z,0.00
2018-02-09T03:40:38.854Z,0.00
2018-02-09T03:41:38.805Z,0.00
2018-02-09T03:42:59.785Z,0.00
2018-02-09T03:43:59.777Z,0.00
2018-02-09T03:44:38.821Z,0.00
2018-02-09T03:45:38.746Z,0.00
2018-02-09T03:46:38.738Z,0.00
2018-02-09T03:47:59.739Z,0.00
2018-02-09T03:48:59.716Z,0.00
2018-02-09T03:49:38.721Z,0.00
2018-02-09T03:50:38.707Z,0.00
2018-02-09T03:51:39.887Z,0.00
2018-02-09T03:52:59.671Z,0.00
2018-02-09T03:53:59.664Z,0.00
2018-02-09T03:54:38.660Z,0.00
2018-02-09T03:55:38.635Z,0.00
2018-02-09T03:56:38.637Z,0.00
2018-02-09T03:57:59.610Z,0.00
2018-02-09T03:58:59.602Z,0.00
2018-02-09T03:59:38.603Z,0.00
2018-02-09T04:00:38.575Z,0.00
2018-02-09T04:01:38.586Z,0.00
2018-02-09T04:02:59.603Z,0.00
2018-02-09T04:03:59.542Z,0.00
2018-02-09T04:04:38.527Z,0.00
2018-02-09T04:05:38.524Z,0.00
2018-02-09T04:06:38.540Z,0.00
2018-02-09T04:07:59.497Z,0.00
2018-02-09T04:08:59.483Z,0.00
2018-02-09T04:09:38.469Z,0.00
2018-02-09T04:10:38.457Z,0.00
2018-02-09T04:11:38.451Z,0.00
2018-02-09T04:12:59.440Z,0.00
2018-02-09T04:13:59.428Z,0.00
2018-02-09T04:14:38.422Z,0.00
2018-02-09T04:15:38.402Z,0.00
2018-02-09T04:16:38.397Z,0.00
2018-02-09T04:17:59.425Z,0.00
2018-02-09T04:18:59.378Z,0.00
2018-02-09T04:19:38.358Z,0.00
2018-02-09T04:20:38.341Z,0.00
2018-02-09T04:21:38.365Z,0.00
2018-02-09T04:22:59.326Z,0.00
2018-02-09T04:23:59.313Z,0.00
2018-02-09T04:24:38.295Z,0.00
2018-02-09T04:25:38.285Z,0.00
2018-02-09T04:26:38.276Z,0.00
2018-02-09T04:27:59.268Z,0.00
2018-02-09T04:28:59.257Z,0.00
2018-02-09T04:29:38.234Z,0.00
2018-02-09T04:30:38.227Z,0.00
2018-02-09T04:31:38.216Z,0.00
2018-02-09T04:32:59.205Z,0.00
2018-02-09T04:33:59.198Z,0.00
2018-02-09T04:34:38.181Z,0.00
2018-02-09T04:35:38.173Z,0.00
2018-02-09T04:36:38.181Z,0.00
2018-02-09T04:37:59.153Z,0.00
2018-02-09T04:38:59.143Z,0.00
2018-02-09T04:39:38.965Z,0.00
2018-02-09T04:40:38.113Z,0.00
2018-02-09T04:41:38.103Z,0.00
2018-02-09T04:42:59.102Z,0.00
2018-02-09T04:43:59.082Z,0.00
2018-02-09T04:44:38.063Z,0.00
2018-02-09T04:45:38.077Z,0.00
2018-02-09T04:46:38.042Z,0.00
2018-02-09T04:47:59.052Z,0.00
2018-02-09T04:48:59.028Z,0.00
2018-02-09T04:49:38.009Z,0.00
2018-02-09T04:50:37.998Z,0.00
2018-02-09T04:51:38.008Z,0.00
2018-02-09T04:52:58.994Z,0.00
2018-02-09T04:53:58.992Z,0.00
2018-02-09T04:54:37.955Z,0.00
2018-02-09T04:55:37.941Z,0.00
2018-02-09T04:56:37.933Z,0.00
2018-02-09T04:57:58.920Z,0.00
2018-02-09T04:58:58.923Z,0.00
2018-02-09T04:59:37.897Z,0.00
2018-02-09T05:00:37.883Z,0.00
2018-02-09T05:01:37.874Z,0.00
2018-02-09T05:02:58.892Z,0.00
2018-02-09T05:03:58.856Z,0.00
2018-02-09T05:04:37.836Z,0.00
2018-02-09T05:05:37.827Z,0.00
2018-02-09T05:06:37.856Z,0.00
2018-02-09T05:07:58.813Z,0.00
2018-02-09T05:08:58.802Z,0.00
2018-02-09T05:09:37.784Z,0.00
2018-02-09T05:10:37.769Z,0.00
2018-02-09T05:11:37.766Z,0.00
2018-02-09T05:12:58.775Z,0.00
2018-02-09T05:13:58.749Z,0.00
2018-02-09T05:14:37.726Z,0.00
2018-02-09T05:15:37.715Z,0.00
2018-02-09T05:16:37.702Z,0.00
2018-02-09T05:17:58.702Z,0.00
2018-02-09T05:18:58.704Z,0.00
2018-02-09T05:19:37.671Z,0.00
2018-02-09T05:20:37.674Z,0.00
2018-02-09T05:21:37.660Z,0.00
2018-02-09T05:22:58.641Z,0.00
2018-02-09T05:23:58.650Z,0.00
2018-02-09T05:24:37.608Z,0.00
2018-02-09T05:25:37.599Z,0.00
2018-02-09T05:26:37.588Z,0.00
2018-02-09T05:27:58.599Z,0.00
2018-02-09T05:28:58.568Z,0.00
2018-02-09T05:29:37.554Z,0.00
2018-02-09T05:30:37.544Z,0.00
2018-02-09T05:31:37.532Z,0.00
2018-02-09T05:32:58.535Z,0.00
2018-02-09T05:33:58.508Z,0.00
2018-02-09T05:34:37.492Z,0.00
2018-02-09T05:35:37.486Z,0.00
2018-02-09T05:36:37.476Z,0.00
2018-02-09T05:37:58.467Z,0.00
2018-02-09T05:38:58.457Z,0.00
2018-02-09T05:39:37.444Z,0.00
2018-02-09T05:40:37.424Z,0.00
2018-02-09T05:41:37.422Z,0.00
2018-02-09T05:42:58.459Z,0.00
2018-02-09T05:43:58.405Z,0.00
2018-02-09T05:44:37.378Z,0.00
2018-02-09T05:45:37.374Z,0.00
2018-02-09T05:46:37.360Z,0.00
2018-02-09T05:47:58.393Z,0.00
2018-02-09T05:48:58.337Z,0.00
2018-02-09T05:49:37.328Z,0.00
2018-02-09T05:50:37.309Z,0.00
2018-02-09T05:51:37.301Z,0.00
2018-02-09T05:52:58.293Z,0.00
2018-02-09T05:53:58.284Z,0.00
2018-02-09T05:54:37.265Z,0.00
2018-02-09T05:55:37.284Z,0.00
2018-02-09T05:56:37.243Z,0.00
2018-02-09T05:57:58.234Z,0.00
2018-02-09T05:58:58.226Z,0.00
2018-02-09T05:59:37.209Z,0.00
2018-02-09T06:00:37.198Z,0.00
2018-02-09T06:01:37.191Z,0.00
2018-02-09T06:02:58.180Z,0.00
2018-02-09T06:03:58.168Z,0.00
2018-02-09T06:04:37.150Z,0.00
2018-02-09T06:05:37.145Z,0.00
2018-02-09T06:06:37.127Z,0.00
2018-02-09T06:07:58.123Z,0.00
2018-02-09T06:08:58.110Z,0.00
2018-02-09T06:09:37.090Z,0.00
2018-02-09T06:10:37.081Z,0.00
2018-02-09T06:11:37.071Z,0.00
2018-02-09T06:12:58.070Z,0.00
2018-02-09T06:13:58.473Z,0.00
2018-02-09T06:14:37.041Z,0.00
2018-02-09T06:15:37.035Z,0.00
2018-02-09T06:16:37.013Z,0.00
2018-02-09T06:17:58.009Z,0.00
2018-02-09T06:18:57.997Z,4.00
2018-02-09T06:19:36.983Z,4.00
2018-02-09T06:20:36.992Z,0.00
2018-02-09T06:21:36.958Z,0.00
2018-02-09T06:22:57.953Z,0.00
2018-02-09T06:23:57.955Z,0.00
2018-02-09T06:24:36.920Z,4.00
2018-02-09T06:25:36.916Z,4.00
2018-02-09T06:26:36.903Z,0.00
2018-02-09T06:27:57.896Z,0.00
2018-02-09T06:28:57.884Z,4.00
2018-02-09T06:29:37.486Z,4.00
2018-02-09T06:30:36.854Z,4.00
2018-02-09T06:31:36.848Z,4.00
2018-02-09T06:32:57.836Z,4.00
2018-02-09T06:33:57.827Z,4.00
2018-02-09T06:34:36.811Z,8.00
2018-02-09T06:35:36.818Z,8.00
2018-02-09T06:36:36.788Z,8.00
2018-02-09T06:37:57.778Z,8.00
2018-02-09T06:38:57.769Z,8.00
2018-02-09T06:39:36.754Z,16.00
2018-02-09T06:40:36.739Z,16.00
2018-02-09T06:41:36.732Z,16.00
2018-02-09T06:42:57.727Z,16.00
2018-02-09T06:43:57.710Z,20.00
2018-02-09T06:44:36.706Z,20.00
2018-02-09T06:45:36.684Z,24.00
2018-02-09T06:46:36.676Z,28.00
2018-02-09T06:47:57.665Z,28.00
2018-02-09T06:48:57.651Z,28.00
2018-02-09T06:49:36.638Z,32.00
2018-02-09T06:50:36.664Z,36.00
2018-02-09T06:51:36.620Z,36.00
2018-02-09T06:52:57.608Z,44.00
2018-02-09T06:53:57.631Z,44.00
2018-02-09T06:54:36.582Z,48.00
2018-02-09T06:55:36.568Z,52.00
2018-02-09T06:56:36.561Z,56.00
2018-02-09T06:57:57.550Z,60.00
2018-02-09T06:58:57.542Z,64.00
2018-02-09T06:59:36.527Z,72.00
2018-02-09T07:00:36.515Z,80.00
2018-02-09T07:01:36.501Z,88.00
2018-02-09T07:02:57.498Z,92.00
2018-02-09T07:03:57.481Z,100.00
2018-02-09T07:04:36.471Z,108.00
2018-02-09T07:05:36.485Z,116.00
2018-02-09T07:06:36.442Z,120.00
2018-02-09T07:07:57.437Z,128.00
2018-02-09T07:08:57.495Z,136.00
2018-02-09T07:09:36.412Z,148.00
2018-02-09T07:10:36.398Z,152.00
2018-02-09T07:11:36.389Z,164.00
2018-02-09T07:12:57.380Z,172.00
2018-02-09T07:13:57.369Z,176.00
2018-02-09T07:14:36.356Z,184.00
2018-02-09T07:15:36.344Z,192.00
2018-02-09T07:16:36.329Z,204.00
2018-02-09T07:17:57.322Z,212.00
2018-02-09T07:18:57.312Z,220.00
2018-02-09T07:19:36.303Z,236.00
2018-02-09T07:20:36.365Z,244.00
2018-02-09T07:21:36.275Z,252.00
2018-02-09T07:22:57.272Z,264.00
2018-02-09T07:23:57.273Z,268.00
2018-02-09T07:24:36.242Z,280.00
2018-02-09T07:25:36.226Z,296.00
2018-02-09T07:26:36.233Z,308.00
2018-02-09T07:27:57.211Z,312.00
2018-02-09T07:28:57.202Z,312.00
2018-02-09T07:29:36.191Z,320.00
2018-02-09T07:30:36.176Z,328.00
2018-02-09T07:31:36.165Z,340.00
2018-02-09T07:32:57.157Z,344.00
2018-02-09T07:33:57.147Z,344.00
2018-02-09T07:34:36.131Z,344.00
2018-02-09T07:35:36.127Z,340.00
2018-02-09T07:36:36.131Z,336.00
2018-02-09T07:37:57.103Z,332.00
2018-02-09T07:38:57.158Z,324.00
2018-02-09T07:39:36.078Z,320.00
2018-02-09T07:40:36.063Z,316.00
2018-02-09T07:41:36.047Z,304.00
2018-02-09T07:42:57.046Z,308.00
2018-02-09T07:43:57.031Z,316.00
2018-02-09T07:44:36.037Z,328.00
2018-02-09T07:45:36.005Z,344.00
2018-02-09T07:46:35.996Z,380.00
2018-02-09T07:47:56.989Z,440.00
2018-02-09T07:48:56.978Z,492.00
2018-02-09T07:49:35.959Z,532.00
2018-02-09T07:50:35.956Z,568.00
2018-02-09T07:51:35.940Z,592.00
2018-02-09T07:52:56.933Z,612.00
2018-02-09T07:53:56.920Z,608.00
2018-02-09T07:54:35.904Z,584.00
2018-02-09T07:55:35.896Z,552.00
2018-02-09T07:56:35.884Z,536.00
2018-02-09T07:57:56.875Z,536.00
2018-02-09T07:58:56.866Z,564.00
2018-02-09T07:59:35.846Z,612.00
2018-02-09T08:00:35.839Z,648.00
2018-02-09T08:01:35.825Z,692.00
2018-02-09T08:02:56.819Z,760.00
2018-02-09T08:03:56.809Z,844.00
2018-02-09T08:04:35.795Z,916.00
2018-02-09T08:05:35.778Z,980.00
2018-02-09T08:06:35.768Z,984.00
2018-02-09T08:07:56.765Z,976.00
2018-02-09T08:08:56.750Z,952.00
2018-02-09T08:09:35.739Z,916.00
2018-02-09T08:10:35.724Z,900.00
2018-02-09T08:11:35.715Z,860.00
2018-02-09T08:12:56.706Z,832.00
2018-02-09T08:13:56.694Z,848.00
2018-02-09T08:14:35.677Z,872.00
2018-02-09T08:15:35.670Z,884.00
2018-02-09T08:16:35.657Z,884.00
2018-02-09T08:17:56.651Z,896.00
2018-02-09T08:18:56.641Z,916.00
2018-02-09T08:19:35.641Z,948.00
2018-02-09T08:20:35.611Z,960.00
2018-02-09T08:21:35.600Z,944.00
2018-02-09T08:22:56.603Z,952.00
2018-02-09T08:23:56.582Z,968.00
2018-02-09T08:24:35.564Z,1000.00
2018-02-09T08:25:35.553Z,1032.00
2018-02-09T08:26:35.551Z,1068.00
2018-02-09T08:27:56.538Z,1100.00
2018-02-09T08:28:56.526Z,1128.00
2018-02-09T08:29:35.517Z,1160.00
2018-02-09T08:30:35.502Z,1148.00
2018-02-09T08:31:35.490Z,1144.00
2018-02-09T08:32:56.490Z,1172.00
2018-02-09T08:33:56.470Z,1196.00
2018-02-09T08:34:35.473Z,1192.00
2018-02-09T08:35:35.447Z,1196.00
2018-02-09T08:36:35.435Z,1228.00
2018-02-09T08:37:56.458Z,1264.00
2018-02-09T08:38:56.419Z,1312.00
2018-02-09T08:39:35.401Z,1356.00
2018-02-09T08:40:35.393Z,1396.00
2018-02-09T08:41:35.376Z,1444.00
2018-02-09T08:42:56.372Z,1492.00
2018-02-09T08:43:56.358Z,1516.00
2018-02-09T08:44:35.342Z,1496.00
2018-02-09T08:45:35.342Z,1456.00
2018-02-09T08:46:35.323Z,1432.00
2018-02-09T08:47:56.315Z,1476.00
2018-02-09T08:48:56.301Z,1556.00
2018-02-09T08:49:35.298Z,1632.00
2018-02-09T08:50:35.280Z,1664.00
2018-02-09T08:51:35.284Z,1636.00
2018-02-09T08:52:56.292Z,1660.00
2018-02-09T08:53:56.248Z,1724.00
2018-02-09T08:54:35.233Z,1780.00
2018-02-09T08:55:35.217Z,1776.00
2018-02-09T08:56:35.217Z,1732.00
2018-02-09T08:57:56.206Z,1732.00
2018-02-09T08:58:56.193Z,1788.00
2018-02-09T08:59:35.173Z,1832.00
2018-02-09T09:00:35.166Z,1832.00
2018-02-09T09:01:35.159Z,1780.00
2018-02-09T09:02:56.153Z,1748.00
2018-02-09T09:03:56.141Z,1756.00
2018-02-09T09:04:35.138Z,1796.00
2018-02-09T09:05:35.120Z,1836.00
2018-02-09T09:06:35.097Z,1848.00
2018-02-09T09:07:56.121Z,1732.00
2018-02-09T09:08:56.085Z,1588.00
2018-02-09T09:09:35.064Z,1528.00
2018-02-09T09:10:35.058Z,1552.00
2018-02-09T09:11:35.052Z,1592.00
2018-02-09T09:12:56.042Z,1612.00
2018-02-09T09:13:56.029Z,1564.00
2018-02-09T09:14:35.008Z,1432.00
2018-02-09T09:15:35.004Z,1316.00
2018-02-09T09:16:34.986Z,1272.00
2018-02-09T09:17:55.981Z,1312.00
2018-02-09T09:18:55.971Z,1400.00
2018-02-09T09:19:34.984Z,1476.00
2018-02-09T09:20:34.944Z,1524.00
2018-02-09T09:21:34.931Z,1556.00
2018-02-09T09:22:55.969Z,1576.00
2018-02-09T09:23:55.917Z,1548.00
2018-02-09T09:24:34.903Z,1548.00
2018-02-09T09:25:34.891Z,1500.00
2018-02-09T09:26:34.903Z,1436.00
2018-02-09T09:27:55.873Z,1388.00
2018-02-09T09:28:55.857Z,1392.00
2018-02-09T09:29:34.846Z,1436.00
2018-02-09T09:30:34.836Z,1520.00
2018-02-09T09:31:34.824Z,1648.00
2018-02-09T09:32:55.816Z,1816.00
2018-02-09T09:33:55.808Z,1992.00
2018-02-09T09:34:34.813Z,2100.00
2018-02-09T09:35:34.781Z,2156.00
2018-02-09T09:36:34.765Z,2216.00
2018-02-09T09:37:55.810Z,2272.00
2018-02-09T09:38:55.753Z,2252.00
2018-02-09T09:39:34.738Z,2188.00
2018-02-09T09:40:34.731Z,2144.00
2018-02-09T09:41:34.735Z,2104.00
2018-02-09T09:42:55.714Z,2032.00
2018-02-09T09:43:55.694Z,1968.00
2018-02-09T09:44:34.681Z,1872.00
2018-02-09T09:45:34.669Z,1820.00
2018-02-09T09:46:34.660Z,1916.00
2018-02-09T09:47:55.650Z,2116.00
2018-02-09T09:48:55.644Z,2288.00
2018-02-09T09:49:34.625Z,2392.00
2018-02-09T09:50:34.616Z,2460.00
2018-02-09T09:51:34.604Z,2496.00
2018-02-09T09:52:55.602Z,2488.00
2018-02-09T09:53:55.584Z,2508.00
2018-02-09T09:54:34.567Z,2568.00
2018-02-09T09:55:34.559Z,2768.00
2018-02-09T09:56:34.581Z,2948.00
2018-02-09T09:57:55.542Z,3096.00
2018-02-09T09:58:55.532Z,3088.00
2018-02-09T09:59:34.522Z,3072.00
2018-02-09T10:00:34.521Z,3020.00
2018-02-09T10:01:34.508Z,2924.00
2018-02-09T10:02:55.492Z,2816.00
2018-02-09T10:03:55.480Z,2820.00
2018-02-09T10:04:34.467Z,2828.00
2018-02-09T10:05:34.452Z,2904.00
2018-02-09T10:06:34.442Z,2864.00
2018-02-09T10:07:55.435Z,2808.00
2018-02-09T10:08:55.425Z,2784.00
2018-02-09T10:09:34.412Z,2768.00
2018-02-09T10:10:34.399Z,2700.00
2018-02-09T10:11:34.416Z,2612.00
2018-02-09T10:12:55.380Z,2648.00
2018-02-09T10:13:55.372Z,2720.00
2018-02-09T10:14:34.354Z,2704.00
2018-02-09T10:15:34.349Z,2684.00
2018-02-09T10:16:34.342Z,2756.00
2018-02-09T10:17:55.322Z,2776.00
2018-02-09T10:18:55.318Z,2700.00
2018-02-09T10:19:34.297Z,2620.00
2018-02-09T10:20:34.292Z,2540.00
2018-02-09T10:21:34.276Z,2392.00
2018-02-09T10:22:55.273Z,2252.00
2018-02-09T10:23:55.265Z,2196.00
2018-02-09T10:24:34.245Z,2176.00
2018-02-09T10:25:34.242Z,2164.00
2018-02-09T10:26:34.277Z,2172.00
2018-02-09T10:27:55.218Z,2220.00
2018-02-09T10:28:55.211Z,2364.00
2018-02-09T10:29:34.190Z,2480.00
2018-02-09T10:30:34.208Z,2552.00
2018-02-09T10:31:34.175Z,2600.00
2018-02-09T10:32:55.164Z,2672.00
2018-02-09T10:33:55.159Z,2848.00
2018-02-09T10:34:34.149Z,2980.00
2018-02-09T10:35:34.148Z,2968.00
2018-02-09T10:36:34.132Z,2856.00
2018-02-09T10:37:55.111Z,2764.00
2018-02-09T10:38:55.103Z,2712.00
2018-02-09T10:39:34.096Z,2788.00
2018-02-09T10:40:34.130Z,2948.00
2018-02-09T10:41:34.080Z,3016.00
2018-02-09T10:42:55.059Z,3032.00
2018-02-09T10:43:55.051Z,3084.00
2018-02-09T10:44:34.030Z,3164.00
2018-02-09T10:45:34.049Z,3200.00
2018-02-09T10:46:34.035Z,3168.00
2018-02-09T10:47:55.006Z,3132.00
2018-02-09T10:48:54.995Z,3136.00
2018-02-09T10:49:33.988Z,3076.00
2018-02-09T10:50:33.974Z,2968.00
2018-02-09T10:51:33.964Z,2980.00
2018-02-09T10:52:54.953Z,3012.00
2018-02-09T10:53:54.943Z,2952.00
2018-02-09T10:54:33.928Z,2960.00
2018-02-09T10:55:33.932Z,2964.00
2018-02-09T10:56:33.917Z,2964.00
2018-02-09T10:57:54.916Z,2944.00
2018-02-09T10:58:54.893Z,2888.00
2018-02-09T10:59:33.878Z,2840.00
2018-02-09T11:00:33.882Z,2840.00
2018-02-09T11:01:33.855Z,2836.00
2018-02-09T11:02:54.853Z,2816.00
2018-02-09T11:03:54.836Z,2748.00
2018-02-09T11:04:33.826Z,2744.00
2018-02-09T11:05:33.813Z,2728.00
2018-02-09T11:06:33.802Z,2652.00
2018-02-09T11:07:54.798Z,2608.00
2018-02-09T11:08:54.788Z,2588.00
2018-02-09T11:09:33.767Z,2560.00
2018-02-09T11:10:33.776Z,2592.00
2018-02-09T11:11:33.749Z,2672.00
2018-02-09T11:12:54.744Z,2712.00
2018-02-09T11:13:54.741Z,2760.00
2018-02-09T11:14:33.723Z,2768.00
2018-02-09T11:15:33.712Z,2712.00
2018-02-09T11:16:33.698Z,2716.00
2018-02-09T11:17:54.700Z,2684.00
2018-02-09T11:18:54.686Z,2644.00
2018-02-09T11:19:33.669Z,2656.00
2018-02-09T11:20:33.659Z,2748.00
2018-02-09T11:21:33.650Z,2748.00
2018-02-09T11:22:54.649Z,2660.00
2018-02-09T11:23:54.642Z,2640.00
2018-02-09T11:24:33.617Z,2688.00
2018-02-09T11:25:33.637Z,2792.00
2018-02-09T11:26:33.604Z,2824.00
2018-02-09T11:27:54.596Z,2780.00
2018-02-09T11:28:54.606Z,2780.00
2018-02-09T11:29:33.572Z,2800.00
2018-02-09T11:30:33.558Z,2744.00
2018-02-09T11:31:33.552Z,2648.00
2018-02-09T11:32:54.548Z,2568.00
2018-02-09T11:33:54.541Z,2656.00
2018-02-09T11:34:33.526Z,2768.00
2018-02-09T11:35:33.510Z,2780.00
2018-02-09T11:36:33.496Z,2732.00
2018-02-09T11:37:54.499Z,2712.00
2018-02-09T11:38:54.483Z,2680.00
2018-02-09T11:39:33.471Z,2612.00
2018-02-09T11:40:33.478Z,2576.00
2018-02-09T11:41:33.441Z,2624.00
2018-02-09T11:42:54.465Z,2680.00
2018-02-09T11:43:54.462Z,2788.00
2018-02-09T11:44:33.414Z,2804.00
2018-02-09T11:45:33.408Z,2744.00
2018-02-09T11:46:33.394Z,2676.00
2018-02-09T11:47:54.396Z,2700.00
2018-02-09T11:48:54.398Z,2692.00
2018-02-09T11:49:33.367Z,2672.00
2018-02-09T11:50:33.352Z,2668.00
2018-02-09T11:51:33.337Z,2716.00
2018-02-09T11:52:54.337Z,2780.00
2018-02-09T11:53:54.336Z,2788.00
2018-02-09T11:54:33.315Z,2764.00
2018-02-09T11:55:33.328Z,2784.00
2018-02-09T11:56:33.288Z,2844.00
2018-02-09T11:57:54.300Z,2880.00
2018-02-09T11:58:54.330Z,2868.00
2018-02-09T11:59:33.265Z,2876.00
2018-02-09T12:00:33.251Z,2952.00
2018-02-09T12:01:33.243Z,3028.00
2018-02-09T12:02:54.235Z,3040.00
2018-02-09T12:03:54.241Z,2992.00
2018-02-09T12:04:33.235Z,2944.00
2018-02-09T12:05:33.200Z,2872.00
2018-02-09T12:06:33.193Z,2788.00
2018-02-09T12:07:54.186Z,2708.00
2018-02-09T12:08:54.173Z,2624.00
2018-02-09T12:09:33.159Z,2588.00
2018-02-09T12:10:33.180Z,2696.00
2018-02-09T12:11:33.139Z,2844.00
2018-02-09T12:12:54.131Z,2832.00
2018-02-09T12:13:54.145Z,2688.00
2018-02-09T12:14:33.109Z,2520.00
2018-02-09T12:15:33.111Z,2444.00
2018-02-09T12:16:33.125Z,2488.00
2018-02-09T12:17:54.083Z,2588.00
2018-02-09T12:18:54.072Z,2656.00
2018-02-09T12:19:33.057Z,2696.00
2018-02-09T12:20:33.052Z,2680.00
2018-02-09T12:21:33.041Z,2624.00
2018-02-09T12:22:54.035Z,2572.00
2018-02-09T12:23:54.026Z,2504.00
2018-02-09T12:24:33.006Z,2444.00
2018-02-09T12:25:33.039Z,2440.00
2018-02-09T12:26:32.991Z,2496.00
2018-02-09T12:27:53.986Z,2516.00
2018-02-09T12:28:53.996Z,2556.00
2018-02-09T12:29:32.960Z,2504.00
2018-02-09T12:30:32.958Z,2484.00
2018-02-09T12:31:32.942Z,2484.00
2018-02-09T12:32:53.941Z,2492.00
2018-02-09T12:33:53.921Z,2484.00
2018-02-09T12:34:32.914Z,2492.00
2018-02-09T12:35:32.900Z,2464.00
2018-02-09T12:36:32.892Z,2384.00
2018-02-09T12:37:53.889Z,2272.00
2018-02-09T12:38:53.876Z,2212.00
2018-02-09T12:39:32.864Z,2228.00
2018-02-09T12:40:32.883Z,2256.00
2018-02-09T12:41:32.843Z,2300.00
2018-02-09T12:42:53.839Z,2332.00
2018-02-09T12:43:53.857Z,2372.00
2018-02-09T12:44:32.891Z,2408.00
2018-02-09T12:45:34.016Z,2392.00